Terminal Aerodrome Forecast
Issued by NWS Tulsa, OK

Home | Current Version | Previous Version | Text Only | Print | Product List | Glossary On
Versions: 1 2 3 4 5 6 7 8 9 10 11 12 13 14 15 16 17 18 19
000
FTUS44 KTSA 051739
TAFFSM
TAF
KFSM 051739Z 0518/0618 09007KT P6SM SCT007 BKN012
     FM060100 08004KT 5SM -RA BR OVC015
      TEMPO 0602/0606 2SM -RA BR OVC007
     FM060600 VRB03KT 4SM -DZ BR OVC007
      TEMPO 0606/0610 1SM -DZ BR OVC004
     FM061300 31008KT P6SM OVC012
     FM061600 32012KT P6SM BKN025=

USA.gov is the U.S. government's official web portal to all federal, state and local government web resources and services.